sensor_id;sensor_type;location;lat;lon;timestamp;temperature;humidity
40255;DHT22;25973;52.368;4.940;2023-04-24T00:00:31;13.10;99.90
40255;DHT22;25973;52.368;4.940;2023-04-24T00:02:56;13.00;99.90
40255;DHT22;25973;52.368;4.940;2023-04-24T00:05:23;13.00;99.90
40255;DHT22;25973;52.368;4.940;2023-04-24T00:07:49;12.90;99.90
40255;DHT22;25973;52.368;4.940;2023-04-24T00:10:17;12.90;99.90
40255;DHT22;25973;52.368;4.940;2023-04-24T00:12:43;12.80;99.90
40255;DHT22;25973;52.368;4.940;2023-04-24T00:15:09;12.80;99.90
40255;DHT22;25973;52.368;4.940;2023-04-24T00:17:34;12.70;99.90
40255;DHT22;25973;52.368;4.940;2023-04-24T00:20:00;12.50;99.90
40255;DHT22;25973;52.368;4.940;2023-04-24T00:22:27;12.40;99.90
40255;DHT22;25973;52.368;4.940;2023-04-24T00:24:53;12.20;99.90
40255;DHT22;25973;52.368;4.940;2023-04-24T00:27:18;12.10;99.90
40255;DHT22;25973;52.368;4.940;2023-04-24T00:29:44;12.00;99.90
40255;DHT22;25973;52.368;4.940;2023-04-24T00:32:09;12.00;99.90
40255;DHT22;25973;52.368;4.940;2023-04-24T00:34:35;11.90;99.90
40255;DHT22;25973;52.368;4.940;2023-04-24T00:37:00;11.90;99.90
40255;DHT22;25973;52.368;4.940;2023-04-24T00:39:26;11.80;99.90
40255;DHT22;25973;52.368;4.940;2023-04-24T00:41:51;11.80;99.90
40255;DHT22;25973;52.368;4.940;2023-04-24T00:44:17;11.90;99.90
40255;DHT22;25973;52.368;4.940;2023-04-24T00:46:43;11.90;99.90
40255;DHT22;25973;52.368;4.940;2023-04-24T00:49:08;11.90;99.90
40255;DHT22;25973;52.368;4.940;2023-04-24T00:51:34;11.90;99.90
40255;DHT22;25973;52.368;4.940;2023-04-24T00:54:00;11.90;99.90
40255;DHT22;25973;52.368;4.940;2023-04-24T00:56:26;11.80;99.90
40255;DHT22;25973;52.368;4.940;2023-04-24T00:58:51;11.90;99.90
40255;DHT22;25973;52.368;4.940;2023-04-24T01:01:18;11.90;99.90
40255;DHT22;25973;52.368;4.940;2023-04-24T01:03:46;11.90;99.90
40255;DHT22;25973;52.368;4.940;2023-04-24T01:06:11;11.90;99.90
40255;DHT22;25973;52.368;4.940;2023-04-24T01:08:37;11.90;99.90
40255;DHT22;25973;52.368;4.940;2023-04-24T01:11:04;11.90;99.90
40255;DHT22;25973;52.368;4.940;2023-04-24T01:13:30;11.90;99.90
40255;DHT22;25973;52.368;4.940;2023-04-24T01:15:56;11.90;99.90
40255;DHT22;25973;52.368;4.940;2023-04-24T01:18:22;11.90;99.90
40255;DHT22;25973;52.368;4.940;2023-04-24T01:20:47;11.90;99.90
40255;DHT22;25973;52.368;4.940;2023-04-24T01:23:15;11.90;99.90
40255;DHT22;25973;52.368;4.940;2023-04-24T01:25:41;11.90;99.90
40255;DHT22;25973;52.368;4.940;2023-04-24T01:28:06;11.90;99.90
40255;DHT22;25973;52.368;4.940;2023-04-24T01:30:32;11.90;99.90
40255;DHT22;25973;52.368;4.940;2023-04-24T01:32:57;11.90;99.90
40255;DHT22;25973;52.368;4.940;2023-04-24T01:35:23;11.90;99.90
40255;DHT22;25973;52.368;4.940;2023-04-24T01:37:49;11.80;99.90
40255;DHT22;25973;52.368;4.940;2023-04-24T01:40:15;11.80;99.90
40255;DHT22;25973;52.368;4.940;2023-04-24T01:42:40;11.70;99.90
40255;DHT22;25973;52.368;4.940;2023-04-24T01:45:06;11.70;99.90
40255;DHT22;25973;52.368;4.940;2023-04-24T01:47:33;11.70;99.90
40255;DHT22;25973;52.368;4.940;2023-04-24T01:49:58;11.60;99.90
40255;DHT22;25973;52.368;4.940;2023-04-24T01:52:24;11.60;99.90
40255;DHT22;25973;52.368;4.940;2023-04-24T01:54:49;11.60;99.90
40255;DHT22;25973;52.368;4.940;2023-04-24T01:57:15;11.60;99.90
40255;DHT22;25973;52.368;4.940;2023-04-24T01:59:41;11.50;99.90
40255;DHT22;25973;52.368;4.940;2023-04-24T02:02:07;11.50;99.90
40255;DHT22;25973;52.368;4.940;2023-04-24T02:04:32;11.50;99.90
40255;DHT22;25973;52.368;4.940;2023-04-24T02:06:57;11.40;99.90
40255;DHT22;25973;52.368;4.940;2023-04-24T02:09:23;11.40;99.90
40255;DHT22;25973;52.368;4.940;2023-04-24T02:11:48;11.40;99.90
40255;DHT22;25973;52.368;4.940;2023-04-24T02:14:14;11.40;99.90
40255;DHT22;25973;52.368;4.940;2023-04-24T02:16:39;11.40;99.90
40255;DHT22;25973;52.368;4.940;2023-04-24T02:19:05;11.40;99.90
40255;DHT22;25973;52.368;4.940;2023-04-24T02:21:31;11.40;99.90
40255;DHT22;25973;52.368;4.940;2023-04-24T02:23:57;11.40;99.90
40255;DHT22;25973;52.368;4.940;2023-04-24T02:26:22;11.40;99.90
40255;DHT22;25973;52.368;4.940;2023-04-24T02:28:48;11.40;99.90
40255;DHT22;25973;52.368;4.940;2023-04-24T02:31:13;11.40;99.90
40255;DHT22;25973;52.368;4.940;2023-04-24T02:33:39;11.40;99.90
40255;DHT22;25973;52.368;4.940;2023-04-24T02:36:05;11.40;99.90
40255;DHT22;25973;52.368;4.940;2023-04-24T02:38:30;11.40;99.90
40255;DHT22;25973;52.368;4.940;2023-04-24T02:40:55;11.40;99.90
40255;DHT22;25973;52.368;4.940;2023-04-24T02:43:21;11.40;99.90
40255;DHT22;25973;52.368;4.940;2023-04-24T02:45:47;11.40;99.90
40255;DHT22;25973;52.368;4.940;2023-04-24T02:48:13;11.40;99.90
40255;DHT22;25973;52.368;4.940;2023-04-24T02:50:38;11.40;99.90
40255;DHT22;25973;52.368;4.940;2023-04-24T02:53:04;11.40;99.90
40255;DHT22;25973;52.368;4.940;2023-04-24T02:55:29;11.40;99.90
40255;DHT22;25973;52.368;4.940;2023-04-24T02:57:55;11.40;99.90
40255;DHT22;25973;52.368;4.940;2023-04-24T03:00:20;11.40;99.90
40255;DHT22;25973;52.368;4.940;2023-04-24T03:02:46;11.40;99.90
40255;DHT22;25973;52.368;4.940;2023-04-24T03:05:11;11.40;99.90
40255;DHT22;25973;52.368;4.940;2023-04-24T03:07:37;11.40;99.90
40255;DHT22;25973;52.368;4.940;2023-04-24T03:10:03;11.40;99.90
40255;DHT22;25973;52.368;4.940;2023-04-24T03:12:30;11.40;99.90
40255;DHT22;25973;52.368;4.940;2023-04-24T03:14:55;11.40;99.90
40255;DHT22;25973;52.368;4.940;2023-04-24T03:17:20;11.30;99.90
40255;DHT22;25973;52.368;4.940;2023-04-24T03:19:46;11.30;99.90
40255;DHT22;25973;52.368;4.940;2023-04-24T03:22:11;11.30;99.90
40255;DHT22;25973;52.368;4.940;2023-04-24T03:24:37;11.30;99.90
40255;DHT22;25973;52.368;4.940;2023-04-24T03:27:02;11.30;99.90
40255;DHT22;25973;52.368;4.940;2023-04-24T03:29:28;11.30;99.90
40255;DHT22;25973;52.368;4.940;2023-04-24T03:31:53;11.30;99.90
40255;DHT22;25973;52.368;4.940;2023-04-24T03:34:19;11.30;99.90
40255;DHT22;25973;52.368;4.940;2023-04-24T03:36:44;11.20;99.90
40255;DHT22;25973;52.368;4.940;2023-04-24T03:39:12;11.30;99.90
40255;DHT22;25973;52.368;4.940;2023-04-24T03:41:38;11.30;99.90
40255;DHT22;25973;52.368;4.940;2023-04-24T03:44:03;11.30;99.90
40255;DHT22;25973;52.368;4.940;2023-04-24T03:46:29;11.30;99.90
40255;DHT22;25973;52.368;4.940;2023-04-24T03:48:55;11.30;99.90
40255;DHT22;25973;52.368;4.940;2023-04-24T03:51:20;11.30;99.90
40255;DHT22;25973;52.368;4.940;2023-04-24T03:53:46;11.30;99.90
40255;DHT22;25973;52.368;4.940;2023-04-24T03:56:11;11.30;99.90
40255;DHT22;25973;52.368;4.940;2023-04-24T03:58:36;11.30;99.90
40255;DHT22;25973;52.368;4.940;2023-04-24T04:01:02;11.30;99.90
40255;DHT22;25973;52.368;4.940;2023-04-24T04:03:27;11.30;99.90
40255;DHT22;25973;52.368;4.940;2023-04-24T04:05:53;11.30;99.90
40255;DHT22;25973;52.368;4.940;2023-04-24T04:08:19;11.30;99.90
40255;DHT22;25973;52.368;4.940;2023-04-24T04:10:45;11.30;99.90
40255;DHT22;25973;52.368;4.940;2023-04-24T04:13:10;11.30;99.90
40255;DHT22;25973;52.368;4.940;2023-04-24T04:15:36;11.30;99.90
40255;DHT22;25973;52.368;4.940;2023-04-24T04:18:01;11.30;99.90
40255;DHT22;25973;52.368;4.940;2023-04-24T04:20:27;11.30;99.90
40255;DHT22;25973;52.368;4.940;2023-04-24T04:22:52;11.30;99.90
40255;DHT22;25973;52.368;4.940;2023-04-24T04:25:18;11.30;99.90
40255;DHT22;25973;52.368;4.940;2023-04-24T04:27:45;11.30;99.90
40255;DHT22;25973;52.368;4.940;2023-04-24T04:30:11;11.30;99.90
40255;DHT22;25973;52.368;4.940;2023-04-24T04:32:36;11.30;99.90
40255;DHT22;25973;52.368;4.940;2023-04-24T04:35:02;11.20;99.90
40255;DHT22;25973;52.368;4.940;2023-04-24T04:37:34;11.20;99.90
40255;DHT22;25973;52.368;4.940;2023-04-24T04:39:59;11.20;99.90
40255;DHT22;25973;52.368;4.940;2023-04-24T04:42:25;11.10;99.90
40255;DHT22;25973;52.368;4.940;2023-04-24T04:44:50;11.00;99.90
40255;DHT22;25973;52.368;4.940;2023-04-24T04:47:16;11.00;99.90
40255;DHT22;25973;52.368;4.940;2023-04-24T04:49:42;10.90;99.90
40255;DHT22;25973;52.368;4.940;2023-04-24T04:52:08;10.90;99.90
40255;DHT22;25973;52.368;4.940;2023-04-24T04:54:34;10.90;99.90
40255;DHT22;25973;52.368;4.940;2023-04-24T04:56:59;10.90;99.90
40255;DHT22;25973;52.368;4.940;2023-04-24T04:59:26;10.90;99.90
40255;DHT22;25973;52.368;4.940;2023-04-24T05:01:51;11.00;99.90
40255;DHT22;25973;52.368;4.940;2023-04-24T05:04:17;11.00;99.90
40255;DHT22;25973;52.368;4.940;2023-04-24T05:06:42;11.00;99.90
40255;DHT22;25973;52.368;4.940;2023-04-24T05:09:08;11.00;99.90
40255;DHT22;25973;52.368;4.940;2023-04-24T05:11:33;11.00;99.90
40255;DHT22;25973;52.368;4.940;2023-04-24T05:13:59;11.00;99.90
40255;DHT22;25973;52.368;4.940;2023-04-24T05:16:24;11.00;99.90
40255;DHT22;25973;52.368;4.940;2023-04-24T05:18:50;11.00;99.90
40255;DHT22;25973;52.368;4.940;2023-04-24T05:21:15;10.90;99.90
40255;DHT22;25973;52.368;4.940;2023-04-24T05:23:41;11.00;99.90
40255;DHT22;25973;52.368;4.940;2023-04-24T05:26:06;10.90;99.90
40255;DHT22;25973;52.368;4.940;2023-04-24T05:28:32;10.90;99.90
40255;DHT22;25973;52.368;4.940;2023-04-24T05:30:57;10.90;99.90
40255;DHT22;25973;52.368;4.940;2023-04-24T05:33:24;10.80;99.90
40255;DHT22;25973;52.368;4.940;2023-04-24T05:35:50;10.80;99.90
40255;DHT22;25973;52.368;4.940;2023-04-24T05:38:15;10.70;99.90
40255;DHT22;25973;52.368;4.940;2023-04-24T05:40:44;10.70;99.90
40255;DHT22;25973;52.368;4.940;2023-04-24T05:43:10;10.60;99.90
40255;DHT22;25973;52.368;4.940;2023-04-24T05:45:36;10.60;99.90
40255;DHT22;25973;52.368;4.940;2023-04-24T05:48:01;10.50;99.90
40255;DHT22;25973;52.368;4.940;2023-04-24T05:50:27;10.40;99.90
40255;DHT22;25973;52.368;4.940;2023-04-24T05:52:52;10.40;99.90
40255;DHT22;25973;52.368;4.940;2023-04-24T05:55:18;10.40;99.90
40255;DHT22;25973;52.368;4.940;2023-04-24T05:57:44;10.40;99.90
40255;DHT22;25973;52.368;4.940;2023-04-24T06:00:10;10.30;99.90
40255;DHT22;25973;52.368;4.940;2023-04-24T06:02:37;10.30;99.90
40255;DHT22;25973;52.368;4.940;2023-04-24T06:05:03;10.30;99.90
40255;DHT22;25973;52.368;4.940;2023-04-24T06:07:30;10.30;99.90
40255;DHT22;25973;52.368;4.940;2023-04-24T06:09:55;10.20;99.90
40255;DHT22;25973;52.368;4.940;2023-04-24T06:12:22;10.20;99.90
40255;DHT22;25973;52.368;4.940;2023-04-24T06:14:47;10.10;99.90
40255;DHT22;25973;52.368;4.940;2023-04-24T06:17:13;10.10;99.90
40255;DHT22;25973;52.368;4.940;2023-04-24T06:19:38;10.10;99.90
40255;DHT22;25973;52.368;4.940;2023-04-24T06:22:04;10.10;99.90
40255;DHT22;25973;52.368;4.940;2023-04-24T06:24:29;10.00;99.90
40255;DHT22;25973;52.368;4.940;2023-04-24T06:26:55;10.00;99.90
40255;DHT22;25973;52.368;4.940;2023-04-24T06:29:22;10.00;99.90
40255;DHT22;25973;52.368;4.940;2023-04-24T06:31:47;10.00;99.90
40255;DHT22;25973;52.368;4.940;2023-04-24T06:34:13;10.00;99.90
40255;DHT22;25973;52.368;4.940;2023-04-24T06:36:39;10.00;99.90
40255;DHT22;25973;52.368;4.940;2023-04-24T06:39:04;10.00;99.90
40255;DHT22;25973;52.368;4.940;2023-04-24T06:41:30;10.00;99.90
40255;DHT22;25973;52.368;4.940;2023-04-24T06:43:55;10.00;99.90
40255;DHT22;25973;52.368;4.940;2023-04-24T06:46:21;10.00;99.90
40255;DHT22;25973;52.368;4.940;2023-04-24T06:48:54;10.00;99.90
40255;DHT22;25973;52.368;4.940;2023-04-24T06:51:25;10.00;99.90
40255;DHT22;25973;52.368;4.940;2023-04-24T06:53:51;10.00;99.90
40255;DHT22;25973;52.368;4.940;2023-04-24T06:56:16;10.00;99.90
40255;DHT22;25973;52.368;4.940;2023-04-24T06:58:42;10.10;99.90
40255;DHT22;25973;52.368;4.940;2023-04-24T07:01:07;10.10;99.90
40255;DHT22;25973;52.368;4.940;2023-04-24T07:03:33;10.10;99.90
40255;DHT22;25973;52.368;4.940;2023-04-24T07:05:58;10.10;99.90
40255;DHT22;25973;52.368;4.940;2023-04-24T07:08:24;10.10;99.90
40255;DHT22;25973;52.368;4.940;2023-04-24T07:10:50;10.10;99.90
40255;DHT22;25973;52.368;4.940;2023-04-24T07:13:16;10.10;99.90
40255;DHT22;25973;52.368;4.940;2023-04-24T07:15:42;10.10;99.90
40255;DHT22;25973;52.368;4.940;2023-04-24T07:18:07;10.10;99.90
40255;DHT22;25973;52.368;4.940;2023-04-24T07:20:33;10.10;99.90
40255;DHT22;25973;52.368;4.940;2023-04-24T07:22:59;10.10;99.90
40255;DHT22;25973;52.368;4.940;2023-04-24T07:25:24;10.10;99.90
40255;DHT22;25973;52.368;4.940;2023-04-24T07:27:50;9.90;99.90
40255;DHT22;25973;52.368;4.940;2023-04-24T07:30:15;9.80;99.90
40255;DHT22;25973;52.368;4.940;2023-04-24T07:32:41;9.80;99.90
40255;DHT22;25973;52.368;4.940;2023-04-24T07:35:06;9.80;99.90
40255;DHT22;25973;52.368;4.940;2023-04-24T07:37:32;9.80;99.90
40255;DHT22;25973;52.368;4.940;2023-04-24T07:39:57;9.70;99.90
40255;DHT22;25973;52.368;4.940;2023-04-24T07:42:23;9.70;99.90
40255;DHT22;25973;52.368;4.940;2023-04-24T07:44:48;9.70;99.90
40255;DHT22;25973;52.368;4.940;2023-04-24T07:47:14;9.70;99.90
40255;DHT22;25973;52.368;4.940;2023-04-24T07:49:42;9.70;99.90
40255;DHT22;25973;52.368;4.940;2023-04-24T07:52:08;9.80;99.90
40255;DHT22;25973;52.368;4.940;2023-04-24T07:54:33;9.70;99.90
40255;DHT22;25973;52.368;4.940;2023-04-24T07:56:59;9.70;99.90
40255;DHT22;25973;52.368;4.940;2023-04-24T07:59:26;9.70;99.90
40255;DHT22;25973;52.368;4.940;2023-04-24T08:01:51;9.60;99.90
40255;DHT22;25973;52.368;4.940;2023-04-24T08:04:16;9.50;99.90
40255;DHT22;25973;52.368;4.940;2023-04-24T08:06:43;9.50;99.90
40255;DHT22;25973;52.368;4.940;2023-04-24T08:09:09;9.50;99.90
40255;DHT22;25973;52.368;4.940;2023-04-24T08:11:34;9.50;99.90
40255;DHT22;25973;52.368;4.940;2023-04-24T08:13:59;9.50;99.90
40255;DHT22;25973;52.368;4.940;2023-04-24T08:16:25;9.50;99.90
40255;DHT22;25973;52.368;4.940;2023-04-24T08:18:51;9.40;99.90
40255;DHT22;25973;52.368;4.940;2023-04-24T08:21:17;9.50;99.90
40255;DHT22;25973;52.368;4.940;2023-04-24T08:23:44;9.50;99.90
40255;DHT22;25973;52.368;4.940;2023-04-24T08:26:10;9.50;99.90
40255;DHT22;25973;52.368;4.940;2023-04-24T08:28:36;9.50;99.90
40255;DHT22;25973;52.368;4.940;2023-04-24T08:31:02;9.60;99.90
40255;DHT22;25973;52.368;4.940;2023-04-24T08:33:27;9.70;99.90
40255;DHT22;25973;52.368;4.940;2023-04-24T08:35:58;9.70;99.90
40255;DHT22;25973;52.368;4.940;2023-04-24T08:38:25;9.70;99.90
40255;DHT22;25973;52.368;4.940;2023-04-24T08:40:51;9.70;99.90
40255;DHT22;25973;52.368;4.940;2023-04-24T08:43:16;9.80;99.90
40255;DHT22;25973;52.368;4.940;2023-04-24T08:45:42;9.90;99.90
40255;DHT22;25973;52.368;4.940;2023-04-24T08:48:07;9.90;99.90
40255;DHT22;25973;52.368;4.940;2023-04-24T08:50:34;9.90;99.90
40255;DHT22;25973;52.368;4.940;2023-04-24T08:53:00;9.90;99.90
40255;DHT22;25973;52.368;4.940;2023-04-24T08:55:26;9.80;99.90
40255;DHT22;25973;52.368;4.940;2023-04-24T08:57:52;9.90;99.90
40255;DHT22;25973;52.368;4.940;2023-04-24T09:00:18;9.80;99.90
40255;DHT22;25973;52.368;4.940;2023-04-24T09:02:44;9.70;99.90
40255;DHT22;25973;52.368;4.940;2023-04-24T09:05:10;9.60;99.90
40255;DHT22;25973;52.368;4.940;2023-04-24T09:07:36;9.60;99.90
40255;DHT22;25973;52.368;4.940;2023-04-24T09:10:04;9.50;99.90
40255;DHT22;25973;52.368;4.940;2023-04-24T09:12:30;9.50;99.90
40255;DHT22;25973;52.368;4.940;2023-04-24T09:14:56;9.50;99.90
40255;DHT22;25973;52.368;4.940;2023-04-24T09:17:22;9.50;99.90
40255;DHT22;25973;52.368;4.940;2023-04-24T09:19:48;9.50;99.90
40255;DHT22;25973;52.368;4.940;2023-04-24T09:22:13;9.60;99.90
40255;DHT22;25973;52.368;4.940;2023-04-24T09:24:40;9.60;99.90
40255;DHT22;25973;52.368;4.940;2023-04-24T09:27:05;9.70;99.90
40255;DHT22;25973;52.368;4.940;2023-04-24T09:29:32;9.80;99.90
40255;DHT22;25973;52.368;4.940;2023-04-24T09:31:58;9.90;99.90
40255;DHT22;25973;52.368;4.940;2023-04-24T09:34:24;10.10;99.90
40255;DHT22;25973;52.368;4.940;2023-04-24T09:36:50;10.10;99.90
40255;DHT22;25973;52.368;4.940;2023-04-24T09:39:16;10.20;99.90
40255;DHT22;25973;52.368;4.940;2023-04-24T09:41:49;10.20;99.90
40255;DHT22;25973;52.368;4.940;2023-04-24T09:44:19;10.20;99.90
40255;DHT22;25973;52.368;4.940;2023-04-24T09:46:51;10.30;99.90
40255;DHT22;25973;52.368;4.940;2023-04-24T09:49:21;10.40;99.90
40255;DHT22;25973;52.368;4.940;2023-04-24T09:51:47;10.50;99.90
40255;DHT22;25973;52.368;4.940;2023-04-24T09:54:18;10.60;99.90
40255;DHT22;25973;52.368;4.940;2023-04-24T09:56:46;10.70;99.90
40255;DHT22;25973;52.368;4.940;2023-04-24T09:59:16;10.80;99.90
40255;DHT22;25973;52.368;4.940;2023-04-24T10:01:42;10.70;99.90
40255;DHT22;25973;52.368;4.940;2023-04-24T10:04:19;10.80;99.90
40255;DHT22;25973;52.368;4.940;2023-04-24T10:06:46;10.80;99.90
40255;DHT22;25973;52.368;4.940;2023-04-24T10:09:11;10.70;99.90
40255;DHT22;25973;52.368;4.940;2023-04-24T10:11:42;10.60;99.90
40255;DHT22;25973;52.368;4.940;2023-04-24T10:14:09;10.50;99.90
40255;DHT22;25973;52.368;4.940;2023-04-24T10:16:36;10.40;99.90
40255;DHT22;25973;52.368;4.940;2023-04-24T10:19:02;10.40;99.90
40255;DHT22;25973;52.368;4.940;2023-04-24T10:21:28;10.30;99.90
40255;DHT22;25973;52.368;4.940;2023-04-24T10:23:53;10.40;99.90
40255;DHT22;25973;52.368;4.940;2023-04-24T10:26:19;10.50;99.90
40255;DHT22;25973;52.368;4.940;2023-04-24T10:28:45;10.50;99.90
40255;DHT22;25973;52.368;4.940;2023-04-24T10:31:12;10.60;99.90
40255;DHT22;25973;52.368;4.940;2023-04-24T10:33:38;10.80;99.90
40255;DHT22;25973;52.368;4.940;2023-04-24T10:36:04;10.80;99.90
40255;DHT22;25973;52.368;4.940;2023-04-24T10:38:29;10.70;99.90
40255;DHT22;25973;52.368;4.940;2023-04-24T10:41:11;10.70;99.90
40255;DHT22;25973;52.368;4.940;2023-04-24T10:43:45;10.90;99.90
40255;DHT22;25973;52.368;4.940;2023-04-24T10:46:10;11.10;99.90
40255;DHT22;25973;52.368;4.940;2023-04-24T10:48:42;11.20;99.90
40255;DHT22;25973;52.368;4.940;2023-04-24T10:51:10;11.30;99.90
40255;DHT22;25973;52.368;4.940;2023-04-24T10:53:36;11.30;99.90
40255;DHT22;25973;52.368;4.940;2023-04-24T10:56:08;11.20;99.90
40255;DHT22;25973;52.368;4.940;2023-04-24T10:58:44;11.10;99.90
40255;DHT22;25973;52.368;4.940;2023-04-24T11:01:29;11.20;99.90
40255;DHT22;25973;52.368;4.940;2023-04-24T11:03:56;11.30;99.90
40255;DHT22;25973;52.368;4.940;2023-04-24T11:06:31;11.40;99.90
40255;DHT22;25973;52.368;4.940;2023-04-24T11:09:01;11.40;99.90
40255;DHT22;25973;52.368;4.940;2023-04-24T11:11:28;11.40;99.90
40255;DHT22;25973;52.368;4.940;2023-04-24T11:16:20;11.30;99.90
40255;DHT22;25973;52.368;4.940;2023-04-24T11:18:49;11.30;99.90
40255;DHT22;25973;52.368;4.940;2023-04-24T11:21:17;11.30;99.90
40255;DHT22;25973;52.368;4.940;2023-04-24T11:23:42;11.50;99.90
40255;DHT22;25973;52.368;4.940;2023-04-24T11:26:12;11.50;99.90
40255;DHT22;25973;52.368;4.940;2023-04-24T11:28:43;11.40;99.90
40255;DHT22;25973;52.368;4.940;2023-04-24T11:33:53;11.40;99.90
40255;DHT22;25973;52.368;4.940;2023-04-24T11:36:19;11.50;99.90
40255;DHT22;25973;52.368;4.940;2023-04-24T11:38:44;11.60;99.90
40255;DHT22;25973;52.368;4.940;2023-04-24T11:41:10;11.70;99.90
40255;DHT22;25973;52.368;4.940;2023-04-24T11:43:36;11.70;99.90
40255;DHT22;25973;52.368;4.940;2023-04-24T11:46:02;11.80;99.90
40255;DHT22;25973;52.368;4.940;2023-04-24T11:48:28;12.00;99.90
40255;DHT22;25973;52.368;4.940;2023-04-24T11:50:53;12.10;99.90
40255;DHT22;25973;52.368;4.940;2023-04-24T11:53:21;12.10;99.90
40255;DHT22;25973;52.368;4.940;2023-04-24T11:55:47;12.10;99.90
40255;DHT22;25973;52.368;4.940;2023-04-24T11:58:12;12.20;99.90
40255;DHT22;25973;52.368;4.940;2023-04-24T12:00:38;12.20;99.90
40255;DHT22;25973;52.368;4.940;2023-04-24T12:03:05;12.10;99.90
40255;DHT22;25973;52.368;4.940;2023-04-24T12:05:31;12.00;99.90
40255;DHT22;25973;52.368;4.940;2023-04-24T12:07:56;11.70;99.90
40255;DHT22;25973;52.368;4.940;2023-04-24T12:10:22;11.50;99.90
40255;DHT22;25973;52.368;4.940;2023-04-24T12:12:48;11.30;99.90
40255;DHT22;25973;52.368;4.940;2023-04-24T12:15:15;11.10;99.90
40255;DHT22;25973;52.368;4.940;2023-04-24T12:17:41;10.80;99.90
40255;DHT22;25973;52.368;4.940;2023-04-24T12:20:08;10.60;99.90
40255;DHT22;25973;52.368;4.940;2023-04-24T12:22:52;10.60;99.90
40255;DHT22;25973;52.368;4.940;2023-04-24T12:25:19;10.50;99.90
40255;DHT22;25973;52.368;4.940;2023-04-24T12:27:46;10.50;99.90
40255;DHT22;25973;52.368;4.940;2023-04-24T12:30:15;10.60;99.90
40255;DHT22;25973;52.368;4.940;2023-04-24T12:32:42;10.70;99.90
40255;DHT22;25973;52.368;4.940;2023-04-24T12:35:08;10.70;99.90
40255;DHT22;25973;52.368;4.940;2023-04-24T12:37:33;10.80;99.90
40255;DHT22;25973;52.368;4.940;2023-04-24T12:40:00;10.80;99.90
40255;DHT22;25973;52.368;4.940;2023-04-24T12:42:29;10.80;99.90
40255;DHT22;25973;52.368;4.940;2023-04-24T12:44:56;10.90;99.90
40255;DHT22;25973;52.368;4.940;2023-04-24T12:47:21;11.00;99.90
40255;DHT22;25973;52.368;4.940;2023-04-24T12:49:46;11.00;99.90
40255;DHT22;25973;52.368;4.940;2023-04-24T12:52:14;11.00;99.90
40255;DHT22;25973;52.368;4.940;2023-04-24T12:54:39;10.90;99.90
40255;DHT22;25973;52.368;4.940;2023-04-24T12:57:05;10.90;99.90
40255;DHT22;25973;52.368;4.940;2023-04-24T12:59:30;11.00;99.90
40255;DHT22;25973;52.368;4.940;2023-04-24T13:01:56;11.00;99.90
40255;DHT22;25973;52.368;4.940;2023-04-24T13:04:21;11.00;99.90
40255;DHT22;25973;52.368;4.940;2023-04-24T13:06:47;11.00;99.90
40255;DHT22;25973;52.368;4.940;2023-04-24T13:09:12;10.90;99.90
40255;DHT22;25973;52.368;4.940;2023-04-24T13:11:38;10.90;99.90
40255;DHT22;25973;52.368;4.940;2023-04-24T13:14:03;10.70;99.90
40255;DHT22;25973;52.368;4.940;2023-04-24T13:16:29;10.70;99.90
40255;DHT22;25973;52.368;4.940;2023-04-24T13:18:54;10.70;99.90
40255;DHT22;25973;52.368;4.940;2023-04-24T13:21:19;10.80;99.90
40255;DHT22;25973;52.368;4.940;2023-04-24T13:23:45;10.90;99.90
40255;DHT22;25973;52.368;4.940;2023-04-24T13:26:10;10.90;99.90
40255;DHT22;25973;52.368;4.940;2023-04-24T13:28:36;10.80;99.90
40255;DHT22;25973;52.368;4.940;2023-04-24T13:31:03;10.70;99.90
40255;DHT22;25973;52.368;4.940;2023-04-24T13:33:29;10.60;99.90
40255;DHT22;25973;52.368;4.940;2023-04-24T13:35:54;10.40;99.90
40255;DHT22;25973;52.368;4.940;2023-04-24T13:38:20;10.40;99.90
40255;DHT22;25973;52.368;4.940;2023-04-24T13:40:47;10.40;99.90
40255;DHT22;25973;52.368;4.940;2023-04-24T13:43:12;10.40;99.90
40255;DHT22;25973;52.368;4.940;2023-04-24T13:45:38;10.50;99.90
40255;DHT22;25973;52.368;4.940;2023-04-24T13:48:04;10.50;99.90
40255;DHT22;25973;52.368;4.940;2023-04-24T13:50:29;10.50;99.90
40255;DHT22;25973;52.368;4.940;2023-04-24T13:52:55;10.60;99.90
40255;DHT22;25973;52.368;4.940;2023-04-24T13:55:22;10.70;99.90
40255;DHT22;25973;52.368;4.940;2023-04-24T13:57:47;10.70;99.90
40255;DHT22;25973;52.368;4.940;2023-04-24T14:00:13;10.80;99.90
40255;DHT22;25973;52.368;4.940;2023-04-24T14:02:38;10.80;99.90
40255;DHT22;25973;52.368;4.940;2023-04-24T14:05:04;10.90;99.90
40255;DHT22;25973;52.368;4.940;2023-04-24T14:07:31;10.90;99.90
40255;DHT22;25973;52.368;4.940;2023-04-24T14:09:57;11.00;99.90
40255;DHT22;25973;52.368;4.940;2023-04-24T14:12:22;11.00;99.90
40255;DHT22;25973;52.368;4.940;2023-04-24T14:14:48;10.90;99.90
40255;DHT22;25973;52.368;4.940;2023-04-24T14:17:14;11.00;99.90
40255;DHT22;25973;52.368;4.940;2023-04-24T14:19:39;11.00;99.90
40255;DHT22;25973;52.368;4.940;2023-04-24T14:22:05;11.00;99.90
40255;DHT22;25973;52.368;4.940;2023-04-24T14:24:30;11.00;99.90
40255;DHT22;25973;52.368;4.940;2023-04-24T14:26:56;11.10;99.90
40255;DHT22;25973;52.368;4.940;2023-04-24T14:29:21;11.20;99.90
40255;DHT22;25973;52.368;4.940;2023-04-24T14:31:47;11.20;99.90
40255;DHT22;25973;52.368;4.940;2023-04-24T14:34:13;11.20;99.90
40255;DHT22;25973;52.368;4.940;2023-04-24T14:36:38;11.30;99.90
40255;DHT22;25973;52.368;4.940;2023-04-24T14:39:04;11.30;99.90
40255;DHT22;25973;52.368;4.940;2023-04-24T14:41:32;11.30;99.90
40255;DHT22;25973;52.368;4.940;2023-04-24T14:43:58;11.30;99.90
40255;DHT22;25973;52.368;4.940;2023-04-24T14:46:24;11.40;99.90
40255;DHT22;25973;52.368;4.940;2023-04-24T14:48:50;11.40;99.90
40255;DHT22;25973;52.368;4.940;2023-04-24T14:51:15;11.50;99.90
40255;DHT22;25973;52.368;4.940;2023-04-24T14:53:40;11.50;99.90
40255;DHT22;25973;52.368;4.940;2023-04-24T14:56:06;11.50;99.90
40255;DHT22;25973;52.368;4.940;2023-04-24T14:58:31;11.50;99.90
40255;DHT22;25973;52.368;4.940;2023-04-24T15:00:57;11.40;99.90
40255;DHT22;25973;52.368;4.940;2023-04-24T15:03:22;11.40;99.90
40255;DHT22;25973;52.368;4.940;2023-04-24T15:05:48;11.20;99.90
40255;DHT22;25973;52.368;4.940;2023-04-24T15:08:14;11.20;99.90
40255;DHT22;25973;52.368;4.940;2023-04-24T15:10:39;11.10;99.90
40255;DHT22;25973;52.368;4.940;2023-04-24T15:13:05;11.10;99.90
40255;DHT22;25973;52.368;4.940;2023-04-24T15:15:33;11.20;99.90
40255;DHT22;25973;52.368;4.940;2023-04-24T15:17:58;11.20;99.90
40255;DHT22;25973;52.368;4.940;2023-04-24T15:20:24;11.30;99.90
40255;DHT22;25973;52.368;4.940;2023-04-24T15:22:49;11.30;99.90
40255;DHT22;25973;52.368;4.940;2023-04-24T15:25:15;11.30;99.90
40255;DHT22;25973;52.368;4.940;2023-04-24T15:27:41;11.40;99.90
40255;DHT22;25973;52.368;4.940;2023-04-24T15:30:07;11.50;99.90